www.srh.weather.gov   
NOAA logo - Click to go to the NOAA homepage   NWS logo
METAR Formatted Surface Weather Observation
Enter Your "City, ST" or zip code   
Current Version              Previous Version:    01  02  03  04  05  06  07  08  09  10  11  12  13  14  15  16  17  18  19  20  21  22  23  24  25  26  27  28  29  30  
   31  32  33  34  35  36  37  38  39  40  41  42  43  44  45  46  47  48  49  50  51  52  53  54  55  56  57  58  59  60  
[Printable]
550
SAUS41 KCAR 242016
MTR40B
METAR K40B 242016Z AUTO VRB04KT 21/06 A2983 RMK AO1 SLP100
     T02090065 57005



National Weather Service
Disclaimer
Last Modified: August 31, 2005
Privacy Policy